createdAt,value
2022-12-05T00:02:46.712Z,76.91
2022-12-05T00:05:35.597Z,76.95
2022-12-05T00:08:24.617Z,77.27
2022-12-05T00:11:22.558Z,77.34
2022-12-05T00:14:06.994Z,77.57
2022-12-05T00:16:55.735Z,77.59
2022-12-05T00:19:37.987Z,77.49
2022-12-05T00:22:26.602Z,76.94
2022-12-05T00:25:08.978Z,77.58
2022-12-05T00:27:57.709Z,77.54
2022-12-05T00:30:39.983Z,77.09
2022-12-05T00:33:28.661Z,77.40
2022-12-05T00:36:12.975Z,76.98
2022-12-05T00:38:55.610Z,77.02
2022-12-05T00:41:44.655Z,76.98
2022-12-05T00:44:27.058Z,76.74
2022-12-05T00:47:15.709Z,77.21
2022-12-05T00:49:58.224Z,77.16
2022-12-05T00:52:47.600Z,76.92
2022-12-05T00:55:30.024Z,77.46
2022-12-05T00:58:19.672Z,76.84
2022-12-05T01:01:08.748Z,77.02
2022-12-05T01:03:54.514Z,77.28
2022-12-05T01:06:43.613Z,76.78
2022-12-05T01:09:33.953Z,77.35
2022-12-05T01:12:16.672Z,76.73
2022-12-05T01:15:05.017Z,77.04
2022-12-05T01:17:47.596Z,77.03
2022-12-05T01:20:36.933Z,76.91
2022-12-05T01:23:19.669Z,76.78
2022-12-05T01:26:08.730Z,77.37
2022-12-05T01:28:51.156Z,77.67
2022-12-05T01:31:41.679Z,77.29
2022-12-05T01:34:25.980Z,77.31
2022-12-05T01:37:14.559Z,76.87
2022-12-05T01:40:04.806Z,77.17
2022-12-05T01:42:53.931Z,77.30
2022-12-05T01:45:48.735Z,77.75
2022-12-05T01:48:44.080Z,77.28
2022-12-05T01:51:26.692Z,77.18
2022-12-05T01:54:16.947Z,76.60
2022-12-05T01:57:03.582Z,77.41
2022-12-05T01:59:51.982Z,77.42
2022-12-05T02:02:42.673Z,77.72
2022-12-05T02:05:35.554Z,77.35
2022-12-05T02:08:19.101Z,77.25
2022-12-05T02:11:07.535Z,78.08
2022-12-05T02:14:19.938Z,77.88
2022-12-05T02:17:14.648Z,77.59
2022-12-05T02:20:38.536Z,78.23
2022-12-05T02:24:13.542Z,77.43
2022-12-05T02:27:14.681Z,77.57
2022-12-05T02:30:20.257Z,77.99
2022-12-05T02:33:12.683Z,78.11
2022-12-05T02:36:03.957Z,77.46
2022-12-05T02:39:06.644Z,77.28
2022-12-05T02:42:00.943Z,77.32
2022-12-05T02:45:20.675Z,77.46
2022-12-05T02:48:03.990Z,76.21
2022-12-05T02:50:55.588Z,76.21
2022-12-05T02:53:38.915Z,76.44
2022-12-05T02:56:28.569Z,76.56
2022-12-05T02:59:10.898Z,76.10
2022-12-05T03:01:59.652Z,76.25
2022-12-05T03:04:41.938Z,76.24
2022-12-05T03:07:32.683Z,75.55
2022-12-05T03:10:23.639Z,75.76
2022-12-05T03:13:19.530Z,75.59
2022-12-05T03:16:07.943Z,75.18
2022-12-05T03:19:09.543Z,75.89
2022-12-05T03:22:09.894Z,73.98
2022-12-05T03:24:51.530Z,73.89
2022-12-05T03:28:01.913Z,72.92
2022-12-05T03:30:53.773Z,71.68
2022-12-05T03:33:43.947Z,70.93
2022-12-05T03:36:42.578Z,68.94
2022-12-05T03:39:34.306Z,69.43
2022-12-05T03:42:30.625Z,67.92
2022-12-05T03:45:22.610Z,68.69
2022-12-05T03:48:33.619Z,66.47
2022-12-05T03:51:26.588Z,66.12
2022-12-05T03:54:26.972Z,66.09
2022-12-05T03:57:33.611Z,65.66
2022-12-05T04:00:29.073Z,64.03
2022-12-05T04:03:47.702Z,64.42
2022-12-05T04:06:33.941Z,64.27
2022-12-05T04:09:36.678Z,64.12
2022-12-05T04:12:28.285Z,61.39
2022-12-05T04:15:22.531Z,60.33
2022-12-05T04:18:13.609Z,59.70
2022-12-05T04:21:24.669Z,61.61
2022-12-05T04:24:31.521Z,60.60
2022-12-05T04:27:25.331Z,59.97
2022-12-05T04:30:22.530Z,60.59
2022-12-05T04:33:07.794Z,58.74
2022-12-05T04:36:07.540Z,60.78
2022-12-05T04:39:03.096Z,58.66
2022-12-05T04:42:10.621Z,59.99
2022-12-05T04:45:04.065Z,59.74
2022-12-05T04:47:52.546Z,59.13
2022-12-05T04:50:43.577Z,60.35
2022-12-05T04:53:27.941Z,59.28
2022-12-05T04:56:20.541Z,58.30
2022-12-05T04:59:03.872Z,59.66
2022-12-05T05:02:03.715Z,60.39
2022-12-05T05:04:57.933Z,61.14
2022-12-05T05:08:00.656Z,60.04
2022-12-05T05:10:57.118Z,58.88
2022-12-05T05:13:38.540Z,60.14
2022-12-05T05:16:43.584Z,61.21
2022-12-05T05:19:32.582Z,56.92
2022-12-05T05:22:21.010Z,57.22
2022-12-05T05:25:02.567Z,60.24
2022-12-05T05:27:51.530Z,59.10
2022-12-05T05:30:33.941Z,59.53
2022-12-05T05:33:22.597Z,58.52
2022-12-05T05:36:04.885Z,60.52
2022-12-05T05:38:57.511Z,57.05
2022-12-05T05:41:41.977Z,54.38
2022-12-05T05:44:30.601Z,56.82
2022-12-05T05:47:19.570Z,57.52
2022-12-05T05:50:01.850Z,52.91
2022-12-05T05:52:53.011Z,53.99
2022-12-05T05:55:41.086Z,55.49
2022-12-05T05:58:23.597Z,51.48
2022-12-05T06:01:21.609Z,55.20
2022-12-05T06:04:04.067Z,55.80
2022-12-05T06:06:52.796Z,56.51
2022-12-05T06:09:35.072Z,53.31
2022-12-05T06:12:23.578Z,50.28
2022-12-05T06:15:05.947Z,51.66
2022-12-05T06:17:54.614Z,51.35
2022-12-05T06:20:43.668Z,53.61
2022-12-05T06:23:27.250Z,49.17
2022-12-05T06:26:16.531Z,50.75
2022-12-05T06:29:04.969Z,55.37
2022-12-05T06:31:50.702Z,55.37
2022-12-05T06:34:45.608Z,55.06
2022-12-05T06:37:27.878Z,51.97
2022-12-05T06:40:16.529Z,51.78
2022-12-05T06:42:58.785Z,52.79
2022-12-05T06:45:47.717Z,54.53
2022-12-05T06:48:35.955Z,54.31
2022-12-05T06:51:20.530Z,54.91
2022-12-05T06:54:08.938Z,54.26
2022-12-05T06:56:51.526Z,52.77
2022-12-05T06:59:33.821Z,54.25
2022-12-05T07:02:25.967Z,52.54
2022-12-05T07:05:07.954Z,51.49
2022-12-05T07:07:56.654Z,51.69
2022-12-05T07:10:44.897Z,50.87
2022-12-05T07:13:27.508Z,50.39
2022-12-05T07:16:16.685Z,51.17
2022-12-05T07:19:05.683Z,50.67
2022-12-05T07:22:02.486Z,49.69
2022-12-05T07:24:52.656Z,50.79
2022-12-05T07:27:41.588Z,49.16
2022-12-05T07:30:23.876Z,50.12
2022-12-05T07:33:12.567Z,48.49
2022-12-05T07:36:01.636Z,46.02
2022-12-05T07:38:44.991Z,47.29
2022-12-05T07:41:37.624Z,45.93
2022-12-05T07:44:23.916Z,44.71
2022-12-05T07:47:12.811Z,46.79
2022-12-05T07:49:55.035Z,46.03
2022-12-05T07:52:44.952Z,45.88
2022-12-05T07:55:33.625Z,43.68
2022-12-05T07:58:15.816Z,45.06
2022-12-05T08:01:04.557Z,44.79
2022-12-05T08:03:53.956Z,45.56
2022-12-05T08:06:38.639Z,46.24
2022-12-05T08:09:27.524Z,47.12
2022-12-05T08:12:16.701Z,46.67
2022-12-05T08:15:04.860Z,48.46
2022-12-05T08:17:46.556Z,46.96
2022-12-05T08:20:34.869Z,47.78
2022-12-05T08:23:23.647Z,48.20
2022-12-05T08:26:10.927Z,48.14
2022-12-05T08:29:01.611Z,47.27
2022-12-05T08:31:56.584Z,46.52
2022-12-05T08:34:38.884Z,45.44
2022-12-05T08:37:27.579Z,45.13
2022-12-05T08:40:17.584Z,46.12
2022-12-05T08:42:59.860Z,45.98
2022-12-05T08:45:48.674Z,45.48
2022-12-05T08:48:31.887Z,45.68
2022-12-05T08:51:21.596Z,45.64
2022-12-05T08:54:03.905Z,46.36
2022-12-05T08:56:52.674Z,45.66
2022-12-05T08:59:35.555Z,46.47
2022-12-05T09:02:19.059Z,46.12
2022-12-05T09:05:26.418Z,46.35
2022-12-05T09:08:16.645Z,46.39
2022-12-05T09:10:58.831Z,46.88
2022-12-05T09:13:47.681Z,46.64
2022-12-05T09:16:37.499Z,47.61
2022-12-05T09:19:32.583Z,45.95
2022-12-05T09:22:27.648Z,45.71
2022-12-05T09:25:17.603Z,45.36
2022-12-05T09:27:59.882Z,46.89
2022-12-05T09:30:48.722Z,45.68
2022-12-05T09:33:30.922Z,45.03
2022-12-05T09:36:30.540Z,45.50
2022-12-05T09:39:13.907Z,44.71
2022-12-05T09:42:13.549Z,45.60
2022-12-05T09:45:05.033Z,45.27
2022-12-05T09:48:23.598Z,46.66
2022-12-05T09:51:18.557Z,46.63
2022-12-05T09:54:01.008Z,47.98
2022-12-05T09:56:49.523Z,48.06
2022-12-05T09:59:37.961Z,48.61
2022-12-05T10:02:26.541Z,48.54
2022-12-05T10:05:16.740Z,48.42
2022-12-05T10:08:10.550Z,48.68
2022-12-05T10:11:09.853Z,49.61
2022-12-05T10:14:14.490Z,50.30
2022-12-05T10:17:08.978Z,49.80
2022-12-05T10:19:54.527Z,50.22
2022-12-05T10:22:45.952Z,49.99
2022-12-05T10:25:30.535Z,50.21
2022-12-05T10:28:41.938Z,49.83
2022-12-05T10:31:28.669Z,51.25
2022-12-05T10:34:46.627Z,50.57
2022-12-05T10:37:31.500Z,51.52
2022-12-05T10:40:21.543Z,51.46
2022-12-05T10:43:03.903Z,52.54
2022-12-05T10:45:55.640Z,53.38
2022-12-05T10:48:48.621Z,53.96
2022-12-05T10:51:37.032Z,54.09
2022-12-05T10:54:38.623Z,54.05
2022-12-05T10:57:26.681Z,54.57
2022-12-05T11:00:26.502Z,54.99
2022-12-05T11:03:46.840Z,55.42
2022-12-05T11:06:38.536Z,55.53
2022-12-05T11:09:29.873Z,56.30
2022-12-05T11:12:30.624Z,56.58
2022-12-05T11:15:23.610Z,58.04
2022-12-05T11:18:33.642Z,58.27
2022-12-05T11:21:29.421Z,58.84
2022-12-05T11:24:36.625Z,59.03
2022-12-05T11:27:31.578Z,59.70
2022-12-05T11:30:14.148Z,59.50
2022-12-05T11:33:02.518Z,60.90
2022-12-05T11:35:44.791Z,61.73
2022-12-05T11:38:42.671Z,61.83
2022-12-05T11:41:43.262Z,63.57
2022-12-05T11:44:49.518Z,63.49
2022-12-05T11:47:46.709Z,63.51
2022-12-05T11:50:56.684Z,63.67
2022-12-05T11:54:13.390Z,64.56
2022-12-05T11:57:25.716Z,64.78
2022-12-05T12:00:35.035Z,65.55
2022-12-05T12:03:33.321Z,66.13
2022-12-05T12:06:50.896Z,66.49
2022-12-05T12:09:45.505Z,67.15
2022-12-05T12:12:33.734Z,66.98
2022-12-05T12:15:46.938Z,67.61
2022-12-05T12:18:48.029Z,67.71
2022-12-05T12:21:38.927Z,68.24
2022-12-05T12:24:30.852Z,68.67
2022-12-05T12:27:53.661Z,68.66
2022-12-05T12:31:27.875Z,69.06
2022-12-05T12:34:38.470Z,69.02
2022-12-05T12:37:54.856Z,69.48
2022-12-05T12:40:54.506Z,69.78
2022-12-05T12:44:03.943Z,70.15
2022-12-05T12:47:18.567Z,70.00
2022-12-05T12:50:30.553Z,70.38
2022-12-05T12:53:16.001Z,70.52
2022-12-05T12:56:21.613Z,70.75
2022-12-05T12:59:23.113Z,70.08
2022-12-05T13:02:20.632Z,70.77
2022-12-05T13:05:28.700Z,70.85
2022-12-05T13:08:38.525Z,70.76
2022-12-05T13:11:23.286Z,71.04
2022-12-05T13:14:15.507Z,71.04
2022-12-05T13:17:06.931Z,70.69
2022-12-05T13:20:00.541Z,71.55
2022-12-05T13:22:56.555Z,71.75
2022-12-05T13:25:47.223Z,71.95
2022-12-05T13:28:39.599Z,72.03
2022-12-05T13:31:42.008Z,71.78
2022-12-05T13:34:53.517Z,71.80
2022-12-05T13:37:55.506Z,71.93
2022-12-05T13:41:07.620Z,72.07
2022-12-05T13:44:06.269Z,72.22
2022-12-05T13:46:57.643Z,72.33
2022-12-05T13:49:46.631Z,72.47
2022-12-05T13:52:41.591Z,72.83
2022-12-05T13:55:41.904Z,73.07
2022-12-05T13:58:33.507Z,73.14
2022-12-05T14:01:40.810Z,73.61
2022-12-05T14:04:54.501Z,73.78
2022-12-05T14:07:46.987Z,73.67
2022-12-05T14:10:58.591Z,73.98
2022-12-05T14:13:49.997Z,74.25
2022-12-05T14:16:31.519Z,74.15
2022-12-05T14:19:45.513Z,73.99
2022-12-05T14:22:53.633Z,74.62
2022-12-05T14:25:59.533Z,74.56
2022-12-05T14:28:59.618Z,74.41
2022-12-05T14:32:07.035Z,74.37
2022-12-05T14:35:05.453Z,74.83
2022-12-05T14:38:04.142Z,74.42
2022-12-05T14:41:04.115Z,74.63
2022-12-05T14:43:58.080Z,74.79
2022-12-05T14:46:48.591Z,74.92
2022-12-05T14:49:58.952Z,74.82
2022-12-05T14:52:48.526Z,74.88
2022-12-05T14:55:38.883Z,74.69
2022-12-05T14:58:49.478Z,74.91
2022-12-05T15:01:50.624Z,74.98
2022-12-05T15:04:58.991Z,75.11
2022-12-05T15:07:48.639Z,75.40
2022-12-05T15:10:31.911Z,75.57
2022-12-05T15:13:28.660Z,75.80
2022-12-05T15:16:25.978Z,75.53
2022-12-05T15:19:19.537Z,75.79
2022-12-05T15:22:12.755Z,75.70
2022-12-05T15:24:55.069Z,75.99
2022-12-05T15:27:43.782Z,76.08
2022-12-05T15:30:40.589Z,76.22
2022-12-05T15:33:23.386Z,75.90
2022-12-05T15:36:13.606Z,75.96
2022-12-05T15:39:03.522Z,76.95
2022-12-05T15:41:46.610Z,76.26
2022-12-05T15:44:37.395Z,75.71
2022-12-05T15:47:40.602Z,75.73
2022-12-05T15:50:41.885Z,75.86
2022-12-05T15:53:26.807Z,76.24
2022-12-05T15:56:28.576Z,76.55
2022-12-05T15:59:20.927Z,76.39
2022-12-05T16:02:56.753Z,77.07
2022-12-05T16:05:45.988Z,77.16
2022-12-05T16:08:28.475Z,77.10
2022-12-05T16:11:15.520Z,76.52
2022-12-05T16:14:11.499Z,76.59
2022-12-05T16:17:01.672Z,76.43
2022-12-05T16:19:51.472Z,76.61
2022-12-05T16:22:48.800Z,76.85
2022-12-05T16:25:41.743Z,76.55
2022-12-05T16:28:34.799Z,77.78
2022-12-05T16:31:19.236Z,77.67
2022-12-05T16:34:29.707Z,77.54
2022-12-05T16:37:23.056Z,77.14
2022-12-05T16:40:11.511Z,76.94
2022-12-05T16:43:11.036Z,76.53
2022-12-05T16:45:55.845Z,76.72
2022-12-05T16:48:38.152Z,76.58
2022-12-05T16:51:36.440Z,76.51
2022-12-05T16:54:18.934Z,76.86
2022-12-05T16:57:08.871Z,76.67
2022-12-05T16:59:57.837Z,76.57
2022-12-05T17:02:41.556Z,77.06
2022-12-05T17:05:24.966Z,77.40
2022-12-05T17:08:13.752Z,77.58
2022-12-05T17:11:03.611Z,77.23
2022-12-05T17:13:46.413Z,77.24
2022-12-05T17:16:36.747Z,76.90
2022-12-05T17:19:31.793Z,77.21
2022-12-05T17:22:23.872Z,76.89
2022-12-05T17:25:13.501Z,77.11
2022-12-05T17:28:03.304Z,77.22
2022-12-05T17:30:46.658Z,76.94
2022-12-05T17:33:36.705Z,77.33
2022-12-05T17:36:18.975Z,77.72
2022-12-05T17:39:08.237Z,77.62
2022-12-05T17:41:51.172Z,77.99
2022-12-05T17:44:40.599Z,77.73
2022-12-05T17:47:23.134Z,78.12
2022-12-05T17:50:14.128Z,77.54
2022-12-05T17:53:07.596Z,78.33
2022-12-05T17:55:57.465Z,77.97
2022-12-05T17:58:41.240Z,78.23
2022-12-05T18:01:31.105Z,78.14
2022-12-05T18:04:15.200Z,78.62
2022-12-05T18:07:07.516Z,77.97
2022-12-05T18:09:50.141Z,77.63
2022-12-05T18:12:39.663Z,77.35
2022-12-05T18:15:23.114Z,77.84
2022-12-05T18:18:13.556Z,77.61
2022-12-05T18:21:02.627Z,77.52
2022-12-05T18:23:58.489Z,77.35
2022-12-05T18:26:47.551Z,77.70
2022-12-05T18:29:37.663Z,77.49
2022-12-05T18:32:28.500Z,77.48
2022-12-05T18:35:13.173Z,77.90
2022-12-05T18:38:02.588Z,78.28
2022-12-05T18:40:44.976Z,78.19
2022-12-05T18:43:33.985Z,78.10
2022-12-05T18:46:15.957Z,78.22
2022-12-05T18:49:04.820Z,77.66
2022-12-05T18:51:47.878Z,78.15
2022-12-05T18:54:36.484Z,77.63
2022-12-05T18:57:19.255Z,77.47
2022-12-05T19:00:09.567Z,78.54
2022-12-05T19:02:51.934Z,78.58
2022-12-05T19:05:40.554Z,78.46
2022-12-05T19:08:24.432Z,78.12
2022-12-05T19:11:14.600Z,78.25
2022-12-05T19:13:56.916Z,77.79
2022-12-05T19:16:46.596Z,77.53
2022-12-05T19:19:30.178Z,77.24
2022-12-05T19:22:19.456Z,77.41
2022-12-05T19:25:09.515Z,77.53
2022-12-05T19:27:51.635Z,76.99
2022-12-05T19:30:33.805Z,77.15
2022-12-05T19:33:22.514Z,77.21
2022-12-05T19:36:13.825Z,77.79
2022-12-05T19:39:04.473Z,77.71
2022-12-05T19:41:54.504Z,77.40
2022-12-05T19:44:43.501Z,77.57
2022-12-05T19:47:32.551Z,77.73
2022-12-05T19:50:21.396Z,77.78
2022-12-05T19:53:04.677Z,77.57
2022-12-05T19:55:53.561Z,78.02
2022-12-05T19:58:37.554Z,78.20
2022-12-05T20:01:29.611Z,78.22
2022-12-05T20:04:14.491Z,77.99
2022-12-05T20:07:04.468Z,77.30
2022-12-05T20:09:52.825Z,77.47
2022-12-05T20:12:35.554Z,77.70
2022-12-05T20:15:17.793Z,77.78
2022-12-05T20:18:06.557Z,77.86
2022-12-05T20:21:05.117Z,77.97
2022-12-05T20:23:55.567Z,77.48
2022-12-05T20:26:47.817Z,77.79
2022-12-05T20:29:36.419Z,77.56
2022-12-05T20:32:19.840Z,77.44
2022-12-05T20:35:10.520Z,77.86
2022-12-05T20:37:52.778Z,77.44
2022-12-05T20:40:41.536Z,77.78
2022-12-05T20:43:30.516Z,77.46
2022-12-05T20:46:24.423Z,77.55
2022-12-05T20:49:14.530Z,77.28
2022-12-05T20:52:03.884Z,77.47
2022-12-05T20:54:45.812Z,77.38
2022-12-05T20:57:34.533Z,77.35
2022-12-05T21:00:16.949Z,77.55
2022-12-05T21:03:05.540Z,77.16
2022-12-05T21:05:47.759Z,77.54
2022-12-05T21:08:36.590Z,77.72
2022-12-05T21:11:19.903Z,77.59
2022-12-05T21:14:09.534Z,77.12
2022-12-05T21:16:53.879Z,77.13
2022-12-05T21:19:42.590Z,77.67
2022-12-05T21:22:24.829Z,77.52
2022-12-05T21:25:13.531Z,77.55
2022-12-05T21:27:56.014Z,77.41
2022-12-05T21:30:45.593Z,77.57
2022-12-05T21:33:29.058Z,77.46
2022-12-05T21:36:18.547Z,77.67
2022-12-05T21:39:00.808Z,77.82
2022-12-05T21:41:49.367Z,78.06
2022-12-05T21:44:38.425Z,78.19
2022-12-05T21:47:26.804Z,77.70
2022-12-05T21:50:09.563Z,78.15
2022-12-05T21:52:57.789Z,77.96
2022-12-05T21:55:40.530Z,78.15
2022-12-05T21:58:28.812Z,78.02
2022-12-05T22:01:11.450Z,78.28
2022-12-05T22:04:03.378Z,77.69
2022-12-05T22:06:45.804Z,77.81
2022-12-05T22:09:34.395Z,77.99
2022-12-05T22:12:16.784Z,78.27
2022-12-05T22:15:05.462Z,78.08
2022-12-05T22:17:54.402Z,78.55
2022-12-05T22:20:43.513Z,78.77
2022-12-05T22:23:32.833Z,78.36
2022-12-05T22:26:24.758Z,78.08
2022-12-05T22:29:12.789Z,77.80
2022-12-05T22:31:54.567Z,77.55
2022-12-05T22:34:43.792Z,77.95
2022-12-05T22:37:25.911Z,77.81
2022-12-05T22:40:14.789Z,78.25
2022-12-05T22:42:56.477Z,78.31
2022-12-05T22:45:38.709Z,78.79
2022-12-05T22:48:27.544Z,78.24
2022-12-05T22:51:23.513Z,78.01
2022-12-05T22:54:12.733Z,77.19
2022-12-05T22:56:54.542Z,77.43
2022-12-05T22:59:42.787Z,77.12
2022-12-05T23:02:24.554Z,76.74
2022-12-05T23:05:13.726Z,77.69
2022-12-05T23:07:56.498Z,77.39
2022-12-05T23:10:45.747Z,77.19
2022-12-05T23:13:27.456Z,76.76
2022-12-05T23:16:22.579Z,76.94
2022-12-05T23:19:06.779Z,76.23
2022-12-05T23:21:55.404Z,76.25
2022-12-05T23:24:50.413Z,76.57
2022-12-05T23:27:32.680Z,77.19
2022-12-05T23:30:22.413Z,77.18
2022-12-05T23:33:06.381Z,76.96
2022-12-05T23:35:56.544Z,77.86
2022-12-05T23:38:46.863Z,77.82
2022-12-05T23:41:31.495Z,78.31
2022-12-05T23:44:20.395Z,78.38
2022-12-05T23:47:10.485Z,77.93
2022-12-05T23:49:59.912Z,78.04
2022-12-05T23:52:44.450Z,77.23
2022-12-05T23:55:32.756Z,77.82
2022-12-05T23:58:15.359Z,77.49
